sensor_id;sensor_type;location;lat;lon;timestamp;P1;durP1;ratioP1;P2;durP2;ratioP2
6412;SDS011;3239;48.714;9.472;2023-05-07T00:00:27;6.77;;;2.10;;
6412;SDS011;3239;48.714;9.472;2023-05-07T00:02:53;3.37;;;2.17;;
6412;SDS011;3239;48.714;9.472;2023-05-07T00:05:19;3.77;;;1.80;;
6412;SDS011;3239;48.714;9.472;2023-05-07T00:07:45;3.63;;;1.93;;
6412;SDS011;3239;48.714;9.472;2023-05-07T00:10:12;4.40;;;1.60;;
6412;SDS011;3239;48.714;9.472;2023-05-07T00:12:38;2.80;;;2.00;;
6412;SDS011;3239;48.714;9.472;2023-05-07T00:15:05;3.47;;;2.00;;
6412;SDS011;3239;48.714;9.472;2023-05-07T00:17:32;3.33;;;2.13;;
6412;SDS011;3239;48.714;9.472;2023-05-07T00:19:58;3.10;;;1.83;;
6412;SDS011;3239;48.714;9.472;2023-05-07T00:22:24;4.20;;;2.13;;
6412;SDS011;3239;48.714;9.472;2023-05-07T00:24:49;6.77;;;1.80;;
6412;SDS011;3239;48.714;9.472;2023-05-07T00:27:15;2.63;;;2.30;;
6412;SDS011;3239;48.714;9.472;2023-05-07T00:29:41;2.00;;;1.63;;
6412;SDS011;3239;48.714;9.472;2023-05-07T00:32:07;4.67;;;1.63;;
6412;SDS011;3239;48.714;9.472;2023-05-07T00:34:33;1.83;;;1.57;;
6412;SDS011;3239;48.714;9.472;2023-05-07T00:37:01;2.83;;;2.00;;
6412;SDS011;3239;48.714;9.472;2023-05-07T00:39:26;2.97;;;1.87;;
6412;SDS011;3239;48.714;9.472;2023-05-07T00:41:52;3.70;;;1.93;;
6412;SDS011;3239;48.714;9.472;2023-05-07T00:44:18;2.77;;;1.83;;
6412;SDS011;3239;48.714;9.472;2023-05-07T00:46:44;5.70;;;2.33;;
6412;SDS011;3239;48.714;9.472;2023-05-07T00:49:10;2.73;;;1.97;;
6412;SDS011;3239;48.714;9.472;2023-05-07T00:51:36;3.43;;;1.60;;
6412;SDS011;3239;48.714;9.472;2023-05-07T00:54:02;5.20;;;2.20;;
6412;SDS011;3239;48.714;9.472;2023-05-07T00:56:28;4.33;;;2.13;;
6412;SDS011;3239;48.714;9.472;2023-05-07T00:58:54;4.40;;;3.20;;
6412;SDS011;3239;48.714;9.472;2023-05-07T01:01:21;1.77;;;1.60;;
6412;SDS011;3239;48.714;9.472;2023-05-07T01:03:47;1.90;;;1.70;;
6412;SDS011;3239;48.714;9.472;2023-05-07T01:06:13;2.87;;;1.67;;
6412;SDS011;3239;48.714;9.472;2023-05-07T01:08:41;2.20;;;2.00;;
6412;SDS011;3239;48.714;9.472;2023-05-07T01:11:07;2.20;;;1.93;;
6412;SDS011;3239;48.714;9.472;2023-05-07T01:13:35;1.70;;;1.60;;
6412;SDS011;3239;48.714;9.472;2023-05-07T01:16:02;2.20;;;1.80;;
6412;SDS011;3239;48.714;9.472;2023-05-07T01:18:28;2.50;;;1.83;;
6412;SDS011;3239;48.714;9.472;2023-05-07T01:20:58;2.67;;;1.80;;
6412;SDS011;3239;48.714;9.472;2023-05-07T01:23:26;2.17;;;1.73;;
6412;SDS011;3239;48.714;9.472;2023-05-07T01:25:53;2.30;;;1.90;;
6412;SDS011;3239;48.714;9.472;2023-05-07T01:28:19;3.10;;;1.70;;
6412;SDS011;3239;48.714;9.472;2023-05-07T01:30:46;4.23;;;1.67;;
6412;SDS011;3239;48.714;9.472;2023-05-07T01:33:19;1.77;;;1.53;;
6412;SDS011;3239;48.714;9.472;2023-05-07T01:35:47;2.37;;;1.70;;
6412;SDS011;3239;48.714;9.472;2023-05-07T01:38:18;2.57;;;1.80;;
6412;SDS011;3239;48.714;9.472;2023-05-07T01:40:45;1.60;;;1.40;;
6412;SDS011;3239;48.714;9.472;2023-05-07T01:43:11;1.83;;;1.43;;
6412;SDS011;3239;48.714;9.472;2023-05-07T01:45:37;2.10;;;1.73;;
6412;SDS011;3239;48.714;9.472;2023-05-07T01:48:03;2.10;;;1.90;;
6412;SDS011;3239;48.714;9.472;2023-05-07T01:50:31;2.00;;;1.70;;
6412;SDS011;3239;48.714;9.472;2023-05-07T01:52:58;2.60;;;1.70;;
6412;SDS011;3239;48.714;9.472;2023-05-07T01:55:24;2.13;;;1.73;;
6412;SDS011;3239;48.714;9.472;2023-05-07T01:57:50;2.70;;;1.70;;
6412;SDS011;3239;48.714;9.472;2023-05-07T02:00:16;1.83;;;1.50;;
6412;SDS011;3239;48.714;9.472;2023-05-07T02:02:42;4.20;;;1.93;;
6412;SDS011;3239;48.714;9.472;2023-05-07T02:05:08;4.93;;;2.13;;
6412;SDS011;3239;48.714;9.472;2023-05-07T02:07:34;8.30;;;3.23;;
6412;SDS011;3239;48.714;9.472;2023-05-07T02:10:00;8.57;;;5.20;;
6412;SDS011;3239;48.714;9.472;2023-05-07T02:12:26;7.60;;;6.83;;
6412;SDS011;3239;48.714;9.472;2023-05-07T02:14:51;10.13;;;7.60;;
6412;SDS011;3239;48.714;9.472;2023-05-07T02:17:17;6.67;;;5.97;;
6412;SDS011;3239;48.714;9.472;2023-05-07T02:19:43;7.07;;;4.20;;
6412;SDS011;3239;48.714;9.472;2023-05-07T02:22:09;4.93;;;3.17;;
6412;SDS011;3239;48.714;9.472;2023-05-07T02:24:35;2.80;;;2.50;;
6412;SDS011;3239;48.714;9.472;2023-05-07T02:27:01;2.70;;;2.13;;
6412;SDS011;3239;48.714;9.472;2023-05-07T02:29:28;2.97;;;1.83;;
6412;SDS011;3239;48.714;9.472;2023-05-07T02:31:54;2.90;;;1.87;;
6412;SDS011;3239;48.714;9.472;2023-05-07T02:34:20;3.30;;;2.50;;
6412;SDS011;3239;48.714;9.472;2023-05-07T02:36:46;3.40;;;2.13;;
6412;SDS011;3239;48.714;9.472;2023-05-07T02:39:12;2.23;;;1.60;;
6412;SDS011;3239;48.714;9.472;2023-05-07T02:41:38;2.47;;;1.87;;
6412;SDS011;3239;48.714;9.472;2023-05-07T02:44:04;2.37;;;2.07;;
6412;SDS011;3239;48.714;9.472;2023-05-07T02:46:30;3.10;;;1.70;;
6412;SDS011;3239;48.714;9.472;2023-05-07T02:48:56;2.07;;;1.70;;
6412;SDS011;3239;48.714;9.472;2023-05-07T02:51:22;2.93;;;1.93;;
6412;SDS011;3239;48.714;9.472;2023-05-07T02:53:48;2.17;;;1.67;;
6412;SDS011;3239;48.714;9.472;2023-05-07T02:56:14;3.00;;;2.10;;
6412;SDS011;3239;48.714;9.472;2023-05-07T02:58:40;2.63;;;2.00;;
6412;SDS011;3239;48.714;9.472;2023-05-07T03:01:07;3.07;;;2.20;;
6412;SDS011;3239;48.714;9.472;2023-05-07T03:03:33;3.13;;;1.70;;
6412;SDS011;3239;48.714;9.472;2023-05-07T03:06:00;3.80;;;2.10;;
6412;SDS011;3239;48.714;9.472;2023-05-07T03:08:26;3.13;;;1.83;;
6412;SDS011;3239;48.714;9.472;2023-05-07T03:10:52;5.30;;;2.20;;
6412;SDS011;3239;48.714;9.472;2023-05-07T03:13:18;3.10;;;2.00;;
6412;SDS011;3239;48.714;9.472;2023-05-07T03:15:44;2.40;;;2.20;;
6412;SDS011;3239;48.714;9.472;2023-05-07T03:18:10;2.20;;;1.70;;
6412;SDS011;3239;48.714;9.472;2023-05-07T03:20:36;6.40;;;2.27;;
6412;SDS011;3239;48.714;9.472;2023-05-07T03:23:02;2.50;;;1.93;;
6412;SDS011;3239;48.714;9.472;2023-05-07T03:25:28;5.10;;;1.73;;
6412;SDS011;3239;48.714;9.472;2023-05-07T03:27:57;4.43;;;1.80;;
6412;SDS011;3239;48.714;9.472;2023-05-07T03:30:23;2.40;;;1.80;;
6412;SDS011;3239;48.714;9.472;2023-05-07T03:32:49;2.00;;;1.60;;
6412;SDS011;3239;48.714;9.472;2023-05-07T03:35:15;2.37;;;1.83;;
6412;SDS011;3239;48.714;9.472;2023-05-07T03:37:40;1.90;;;1.73;;
6412;SDS011;3239;48.714;9.472;2023-05-07T03:40:06;2.93;;;2.13;;
6412;SDS011;3239;48.714;9.472;2023-05-07T03:42:35;2.23;;;2.03;;
6412;SDS011;3239;48.714;9.472;2023-05-07T03:45:00;4.47;;;2.47;;
6412;SDS011;3239;48.714;9.472;2023-05-07T03:47:26;2.07;;;1.87;;
6412;SDS011;3239;48.714;9.472;2023-05-07T03:49:52;2.97;;;2.10;;
6412;SDS011;3239;48.714;9.472;2023-05-07T03:52:19;4.33;;;2.00;;
6412;SDS011;3239;48.714;9.472;2023-05-07T03:54:48;2.20;;;2.00;;
6412;SDS011;3239;48.714;9.472;2023-05-07T03:57:14;2.87;;;2.17;;
6412;SDS011;3239;48.714;9.472;2023-05-07T03:59:40;5.53;;;2.20;;
6412;SDS011;3239;48.714;9.472;2023-05-07T04:02:06;4.83;;;2.27;;
6412;SDS011;3239;48.714;9.472;2023-05-07T04:04:31;1.83;;;1.70;;
6412;SDS011;3239;48.714;9.472;2023-05-07T04:06:57;3.10;;;2.00;;
6412;SDS011;3239;48.714;9.472;2023-05-07T04:09:25;2.50;;;2.03;;
6412;SDS011;3239;48.714;9.472;2023-05-07T04:11:51;2.80;;;1.87;;
6412;SDS011;3239;48.714;9.472;2023-05-07T04:14:16;3.43;;;1.73;;
6412;SDS011;3239;48.714;9.472;2023-05-07T04:16:42;3.23;;;1.70;;
6412;SDS011;3239;48.714;9.472;2023-05-07T04:19:08;3.90;;;2.17;;
6412;SDS011;3239;48.714;9.472;2023-05-07T04:21:33;3.30;;;2.13;;
6412;SDS011;3239;48.714;9.472;2023-05-07T04:23:59;2.13;;;1.77;;
6412;SDS011;3239;48.714;9.472;2023-05-07T04:26:25;2.53;;;2.07;;
6412;SDS011;3239;48.714;9.472;2023-05-07T04:28:51;3.00;;;1.90;;
6412;SDS011;3239;48.714;9.472;2023-05-07T04:31:16;3.33;;;2.30;;
6412;SDS011;3239;48.714;9.472;2023-05-07T04:33:42;5.30;;;2.20;;
6412;SDS011;3239;48.714;9.472;2023-05-07T04:36:08;3.60;;;2.07;;
6412;SDS011;3239;48.714;9.472;2023-05-07T04:38:34;2.93;;;2.27;;
6412;SDS011;3239;48.714;9.472;2023-05-07T04:41:03;2.80;;;2.17;;
6412;SDS011;3239;48.714;9.472;2023-05-07T04:43:31;3.70;;;1.93;;
6412;SDS011;3239;48.714;9.472;2023-05-07T04:45:57;3.23;;;2.30;;
6412;SDS011;3239;48.714;9.472;2023-05-07T04:48:23;5.10;;;2.23;;
6412;SDS011;3239;48.714;9.472;2023-05-07T04:50:49;2.43;;;2.23;;
6412;SDS011;3239;48.714;9.472;2023-05-07T04:53:16;2.30;;;2.00;;
6412;SDS011;3239;48.714;9.472;2023-05-07T04:55:42;2.67;;;2.10;;
6412;SDS011;3239;48.714;9.472;2023-05-07T04:58:09;6.70;;;1.90;;
6412;SDS011;3239;48.714;9.472;2023-05-07T05:00:37;1.80;;;1.70;;
6412;SDS011;3239;48.714;9.472;2023-05-07T05:03:04;3.90;;;2.10;;
6412;SDS011;3239;48.714;9.472;2023-05-07T05:05:31;2.87;;;2.33;;
6412;SDS011;3239;48.714;9.472;2023-05-07T05:07:57;4.37;;;2.30;;
6412;SDS011;3239;48.714;9.472;2023-05-07T05:10:23;2.60;;;2.10;;
6412;SDS011;3239;48.714;9.472;2023-05-07T05:12:49;2.57;;;2.37;;
6412;SDS011;3239;48.714;9.472;2023-05-07T05:15:15;2.03;;;1.67;;
6412;SDS011;3239;48.714;9.472;2023-05-07T05:17:41;2.00;;;1.73;;
6412;SDS011;3239;48.714;9.472;2023-05-07T05:20:07;2.30;;;1.93;;
6412;SDS011;3239;48.714;9.472;2023-05-07T05:22:34;2.10;;;1.90;;
6412;SDS011;3239;48.714;9.472;2023-05-07T05:25:00;3.20;;;2.00;;
6412;SDS011;3239;48.714;9.472;2023-05-07T05:27:26;2.70;;;2.20;;
6412;SDS011;3239;48.714;9.472;2023-05-07T05:29:52;5.00;;;2.53;;
6412;SDS011;3239;48.714;9.472;2023-05-07T05:32:17;3.13;;;2.63;;
6412;SDS011;3239;48.714;9.472;2023-05-07T05:34:43;4.17;;;2.10;;
6412;SDS011;3239;48.714;9.472;2023-05-07T05:37:09;2.07;;;1.87;;
6412;SDS011;3239;48.714;9.472;2023-05-07T05:39:35;3.50;;;2.20;;
6412;SDS011;3239;48.714;9.472;2023-05-07T05:42:01;4.87;;;2.10;;
6412;SDS011;3239;48.714;9.472;2023-05-07T05:44:27;6.07;;;1.77;;
6412;SDS011;3239;48.714;9.472;2023-05-07T05:46:52;5.03;;;2.47;;
6412;SDS011;3239;48.714;9.472;2023-05-07T05:49:20;2.43;;;2.20;;
6412;SDS011;3239;48.714;9.472;2023-05-07T05:51:46;3.17;;;2.27;;
6412;SDS011;3239;48.714;9.472;2023-05-07T05:54:12;3.50;;;1.73;;
6412;SDS011;3239;48.714;9.472;2023-05-07T05:56:38;2.57;;;2.30;;
6412;SDS011;3239;48.714;9.472;2023-05-07T05:59:04;2.50;;;2.20;;
6412;SDS011;3239;48.714;9.472;2023-05-07T06:01:30;3.47;;;2.03;;
6412;SDS011;3239;48.714;9.472;2023-05-07T06:03:56;3.60;;;2.13;;
6412;SDS011;3239;48.714;9.472;2023-05-07T06:06:21;2.30;;;1.87;;
6412;SDS011;3239;48.714;9.472;2023-05-07T06:08:47;2.10;;;1.90;;
6412;SDS011;3239;48.714;9.472;2023-05-07T06:11:13;3.93;;;2.20;;
6412;SDS011;3239;48.714;9.472;2023-05-07T06:13:39;4.30;;;2.20;;
6412;SDS011;3239;48.714;9.472;2023-05-07T06:16:04;2.37;;;1.57;;
6412;SDS011;3239;48.714;9.472;2023-05-07T06:18:31;3.10;;;1.57;;
6412;SDS011;3239;48.714;9.472;2023-05-07T06:20:56;3.30;;;1.70;;
6412;SDS011;3239;48.714;9.472;2023-05-07T06:23:22;2.17;;;1.83;;
6412;SDS011;3239;48.714;9.472;2023-05-07T06:25:51;2.93;;;1.90;;
6412;SDS011;3239;48.714;9.472;2023-05-07T06:28:17;2.43;;;2.00;;
6412;SDS011;3239;48.714;9.472;2023-05-07T06:30:43;1.83;;;1.60;;
6412;SDS011;3239;48.714;9.472;2023-05-07T06:33:08;2.93;;;1.70;;
6412;SDS011;3239;48.714;9.472;2023-05-07T06:35:34;2.97;;;1.67;;
6412;SDS011;3239;48.714;9.472;2023-05-07T06:38:00;2.80;;;1.80;;
6412;SDS011;3239;48.714;9.472;2023-05-07T06:40:26;2.40;;;1.90;;
6412;SDS011;3239;48.714;9.472;2023-05-07T06:42:52;2.60;;;1.70;;
6412;SDS011;3239;48.714;9.472;2023-05-07T06:45:19;4.30;;;1.50;;
6412;SDS011;3239;48.714;9.472;2023-05-07T06:47:45;3.00;;;2.00;;
6412;SDS011;3239;48.714;9.472;2023-05-07T06:50:11;2.73;;;1.50;;
6412;SDS011;3239;48.714;9.472;2023-05-07T06:52:36;3.60;;;1.57;;
6412;SDS011;3239;48.714;9.472;2023-05-07T06:55:02;3.07;;;1.73;;
6412;SDS011;3239;48.714;9.472;2023-05-07T06:57:28;3.67;;;1.67;;
6412;SDS011;3239;48.714;9.472;2023-05-07T06:59:54;2.00;;;1.63;;
6412;SDS011;3239;48.714;9.472;2023-05-07T07:02:20;4.50;;;1.57;;
6412;SDS011;3239;48.714;9.472;2023-05-07T07:04:45;2.57;;;1.80;;
6412;SDS011;3239;48.714;9.472;2023-05-07T07:07:11;2.53;;;1.80;;
6412;SDS011;3239;48.714;9.472;2023-05-07T07:09:37;1.70;;;1.60;;
6412;SDS011;3239;48.714;9.472;2023-05-07T07:12:03;1.50;;;1.40;;
6412;SDS011;3239;48.714;9.472;2023-05-07T07:14:29;2.07;;;1.20;;
6412;SDS011;3239;48.714;9.472;2023-05-07T07:16:54;2.07;;;1.50;;
6412;SDS011;3239;48.714;9.472;2023-05-07T07:19:20;2.50;;;1.50;;
6412;SDS011;3239;48.714;9.472;2023-05-07T07:21:46;1.80;;;1.43;;
6412;SDS011;3239;48.714;9.472;2023-05-07T07:24:12;3.17;;;1.73;;
6412;SDS011;3239;48.714;9.472;2023-05-07T07:26:44;5.70;;;2.37;;
6412;SDS011;3239;48.714;9.472;2023-05-07T07:29:10;3.23;;;1.60;;
6412;SDS011;3239;48.714;9.472;2023-05-07T07:31:36;4.53;;;1.57;;
6412;SDS011;3239;48.714;9.472;2023-05-07T07:34:01;2.60;;;1.43;;
6412;SDS011;3239;48.714;9.472;2023-05-07T07:36:27;5.37;;;1.40;;
6412;SDS011;3239;48.714;9.472;2023-05-07T07:38:53;1.67;;;1.50;;
6412;SDS011;3239;48.714;9.472;2023-05-07T07:41:19;2.90;;;1.53;;
6412;SDS011;3239;48.714;9.472;2023-05-07T07:43:45;3.30;;;1.40;;
6412;SDS011;3239;48.714;9.472;2023-05-07T07:46:11;2.30;;;1.23;;
6412;SDS011;3239;48.714;9.472;2023-05-07T07:48:37;1.73;;;1.20;;
6412;SDS011;3239;48.714;9.472;2023-05-07T07:51:03;4.53;;;1.80;;
6412;SDS011;3239;48.714;9.472;2023-05-07T07:53:29;1.80;;;1.40;;
6412;SDS011;3239;48.714;9.472;2023-05-07T07:55:55;3.57;;;1.20;;
6412;SDS011;3239;48.714;9.472;2023-05-07T07:58:21;2.53;;;1.43;;
6412;SDS011;3239;48.714;9.472;2023-05-07T08:00:47;3.67;;;1.70;;
6412;SDS011;3239;48.714;9.472;2023-05-07T08:03:13;2.30;;;1.70;;
6412;SDS011;3239;48.714;9.472;2023-05-07T08:05:41;1.90;;;1.73;;
6412;SDS011;3239;48.714;9.472;2023-05-07T08:08:07;2.50;;;1.40;;
6412;SDS011;3239;48.714;9.472;2023-05-07T08:10:33;4.07;;;1.50;;
6412;SDS011;3239;48.714;9.472;2023-05-07T08:13:00;2.70;;;2.20;;
6412;SDS011;3239;48.714;9.472;2023-05-07T08:15:26;3.53;;;1.87;;
6412;SDS011;3239;48.714;9.472;2023-05-07T08:17:52;2.67;;;1.83;;
6412;SDS011;3239;48.714;9.472;2023-05-07T08:20:17;3.33;;;1.80;;
6412;SDS011;3239;48.714;9.472;2023-05-07T08:22:43;4.53;;;1.90;;
6412;SDS011;3239;48.714;9.472;2023-05-07T08:25:09;1.60;;;1.20;;
6412;SDS011;3239;48.714;9.472;2023-05-07T08:27:35;3.90;;;1.83;;
6412;SDS011;3239;48.714;9.472;2023-05-07T08:30:01;2.70;;;1.87;;
6412;SDS011;3239;48.714;9.472;2023-05-07T08:32:27;2.80;;;2.13;;
6412;SDS011;3239;48.714;9.472;2023-05-07T08:34:53;4.37;;;1.87;;
6412;SDS011;3239;48.714;9.472;2023-05-07T08:37:19;4.27;;;2.20;;
6412;SDS011;3239;48.714;9.472;2023-05-07T08:39:44;3.17;;;2.17;;
6412;SDS011;3239;48.714;9.472;2023-05-07T08:42:11;2.00;;;1.70;;
6412;SDS011;3239;48.714;9.472;2023-05-07T08:44:37;5.43;;;2.07;;
6412;SDS011;3239;48.714;9.472;2023-05-07T08:47:06;2.70;;;1.67;;
6412;SDS011;3239;48.714;9.472;2023-05-07T08:49:33;5.87;;;2.07;;
6412;SDS011;3239;48.714;9.472;2023-05-07T08:52:00;3.83;;;2.27;;
6412;SDS011;3239;48.714;9.472;2023-05-07T08:54:26;3.00;;;1.73;;
6412;SDS011;3239;48.714;9.472;2023-05-07T08:56:54;2.30;;;1.77;;
6412;SDS011;3239;48.714;9.472;2023-05-07T08:59:20;3.60;;;2.07;;
6412;SDS011;3239;48.714;9.472;2023-05-07T09:01:45;2.40;;;1.70;;
6412;SDS011;3239;48.714;9.472;2023-05-07T09:04:11;5.20;;;1.60;;
6412;SDS011;3239;48.714;9.472;2023-05-07T09:06:37;1.97;;;1.60;;
6412;SDS011;3239;48.714;9.472;2023-05-07T09:09:06;2.63;;;1.73;;
6412;SDS011;3239;48.714;9.472;2023-05-07T09:11:32;1.60;;;1.30;;
6412;SDS011;3239;48.714;9.472;2023-05-07T09:13:58;2.33;;;1.50;;
6412;SDS011;3239;48.714;9.472;2023-05-07T09:16:26;3.80;;;1.73;;
6412;SDS011;3239;48.714;9.472;2023-05-07T09:18:57;6.80;;;1.67;;
6412;SDS011;3239;48.714;9.472;2023-05-07T09:21:25;1.93;;;1.60;;
6412;SDS011;3239;48.714;9.472;2023-05-07T09:23:54;1.83;;;1.53;;
6412;SDS011;3239;48.714;9.472;2023-05-07T09:26:24;2.50;;;1.80;;
6412;SDS011;3239;48.714;9.472;2023-05-07T09:28:50;3.03;;;1.37;;
6412;SDS011;3239;48.714;9.472;2023-05-07T09:31:17;2.60;;;1.80;;
6412;SDS011;3239;48.714;9.472;2023-05-07T09:33:43;7.83;;;1.20;;
6412;SDS011;3239;48.714;9.472;2023-05-07T09:36:09;2.27;;;2.00;;
6412;SDS011;3239;48.714;9.472;2023-05-07T09:38:36;2.40;;;1.77;;
6412;SDS011;3239;48.714;9.472;2023-05-07T09:41:06;2.40;;;1.30;;
6412;SDS011;3239;48.714;9.472;2023-05-07T09:43:36;3.80;;;1.57;;
6412;SDS011;3239;48.714;9.472;2023-05-07T09:48:41;2.47;;;1.53;;
6412;SDS011;3239;48.714;9.472;2023-05-07T09:51:31;2.03;;;1.50;;
6412;SDS011;3239;48.714;9.472;2023-05-07T09:54:08;1.70;;;1.33;;
6412;SDS011;3239;48.714;9.472;2023-05-07T09:56:35;3.20;;;1.80;;
6412;SDS011;3239;48.714;9.472;2023-05-07T09:59:02;2.70;;;1.10;;
6412;SDS011;3239;48.714;9.472;2023-05-07T10:01:29;1.80;;;1.37;;
6412;SDS011;3239;48.714;9.472;2023-05-07T10:03:57;2.53;;;1.40;;
6412;SDS011;3239;48.714;9.472;2023-05-07T10:06:24;3.53;;;1.53;;
6412;SDS011;3239;48.714;9.472;2023-05-07T10:08:53;3.20;;;1.40;;
6412;SDS011;3239;48.714;9.472;2023-05-07T10:11:21;5.90;;;1.70;;
6412;SDS011;3239;48.714;9.472;2023-05-07T10:13:48;5.70;;;1.13;;
6412;SDS011;3239;48.714;9.472;2023-05-07T10:16:14;3.00;;;1.20;;
6412;SDS011;3239;48.714;9.472;2023-05-07T10:18:41;2.67;;;1.33;;
6412;SDS011;3239;48.714;9.472;2023-05-07T10:21:08;3.07;;;1.13;;
6412;SDS011;3239;48.714;9.472;2023-05-07T10:23:44;3.40;;;1.10;;
6412;SDS011;3239;48.714;9.472;2023-05-07T10:26:14;5.17;;;1.30;;
6412;SDS011;3239;48.714;9.472;2023-05-07T10:28:43;3.73;;;1.50;;
6412;SDS011;3239;48.714;9.472;2023-05-07T10:31:27;2.03;;;1.00;;
6412;SDS011;3239;48.714;9.472;2023-05-07T10:34:12;2.03;;;1.10;;
6412;SDS011;3239;48.714;9.472;2023-05-07T10:36:44;1.73;;;1.20;;
6412;SDS011;3239;48.714;9.472;2023-05-07T10:39:10;2.30;;;1.10;;
6412;SDS011;3239;48.714;9.472;2023-05-07T10:41:36;2.27;;;1.40;;
6412;SDS011;3239;48.714;9.472;2023-05-07T10:44:02;4.27;;;1.37;;
6412;SDS011;3239;48.714;9.472;2023-05-07T10:46:28;3.77;;;1.30;;
6412;SDS011;3239;48.714;9.472;2023-05-07T10:51:26;2.53;;;1.20;;
6412;SDS011;3239;48.714;9.472;2023-05-07T10:56:37;2.10;;;1.30;;
6412;SDS011;3239;48.714;9.472;2023-05-07T11:01:55;2.50;;;1.47;;
6412;SDS011;3239;48.714;9.472;2023-05-07T11:04:22;2.93;;;1.20;;
6412;SDS011;3239;48.714;9.472;2023-05-07T11:12:18;1.60;;;1.10;;
6412;SDS011;3239;48.714;9.472;2023-05-07T11:15:03;1.50;;;1.00;;
6412;SDS011;3239;48.714;9.472;2023-05-07T11:17:34;2.43;;;1.30;;
6412;SDS011;3239;48.714;9.472;2023-05-07T11:20:16;3.67;;;1.70;;
6412;SDS011;3239;48.714;9.472;2023-05-07T11:22:42;2.17;;;1.27;;
6412;SDS011;3239;48.714;9.472;2023-05-07T11:25:08;1.20;;;0.90;;
6412;SDS011;3239;48.714;9.472;2023-05-07T11:27:34;2.20;;;1.20;;
6412;SDS011;3239;48.714;9.472;2023-05-07T11:30:00;3.53;;;1.40;;
6412;SDS011;3239;48.714;9.472;2023-05-07T11:32:29;1.83;;;1.20;;
6412;SDS011;3239;48.714;9.472;2023-05-07T11:34:57;7.73;;;1.93;;
6412;SDS011;3239;48.714;9.472;2023-05-07T11:37:26;2.20;;;1.00;;
6412;SDS011;3239;48.714;9.472;2023-05-07T11:40:07;2.30;;;1.00;;
6412;SDS011;3239;48.714;9.472;2023-05-07T11:42:39;2.70;;;1.07;;
6412;SDS011;3239;48.714;9.472;2023-05-07T11:45:08;1.70;;;1.27;;
6412;SDS011;3239;48.714;9.472;2023-05-07T11:47:34;2.93;;;1.30;;
6412;SDS011;3239;48.714;9.472;2023-05-07T11:50:04;1.80;;;0.80;;
6412;SDS011;3239;48.714;9.472;2023-05-07T11:52:32;1.53;;;1.37;;
6412;SDS011;3239;48.714;9.472;2023-05-07T11:54:59;1.57;;;1.07;;
6412;SDS011;3239;48.714;9.472;2023-05-07T11:57:26;2.87;;;1.40;;
6412;SDS011;3239;48.714;9.472;2023-05-07T11:59:54;1.63;;;1.00;;
6412;SDS011;3239;48.714;9.472;2023-05-07T12:02:24;2.90;;;1.40;;
6412;SDS011;3239;48.714;9.472;2023-05-07T12:04:51;2.07;;;1.13;;
6412;SDS011;3239;48.714;9.472;2023-05-07T12:07:17;4.03;;;1.10;;
6412;SDS011;3239;48.714;9.472;2023-05-07T12:09:44;5.73;;;1.27;;
6412;SDS011;3239;48.714;9.472;2023-05-07T12:12:11;1.53;;;1.00;;
6412;SDS011;3239;48.714;9.472;2023-05-07T12:14:38;4.20;;;1.20;;
6412;SDS011;3239;48.714;9.472;2023-05-07T12:17:06;4.37;;;1.67;;
6412;SDS011;3239;48.714;9.472;2023-05-07T12:19:37;4.00;;;0.90;;
6412;SDS011;3239;48.714;9.472;2023-05-07T12:22:05;3.20;;;1.10;;
6412;SDS011;3239;48.714;9.472;2023-05-07T12:24:49;3.70;;;1.20;;
6412;SDS011;3239;48.714;9.472;2023-05-07T12:27:22;4.57;;;1.20;;
6412;SDS011;3239;48.714;9.472;2023-05-07T12:29:48;6.20;;;1.17;;
6412;SDS011;3239;48.714;9.472;2023-05-07T12:32:15;2.93;;;1.10;;
6412;SDS011;3239;48.714;9.472;2023-05-07T12:34:45;1.53;;;1.00;;
6412;SDS011;3239;48.714;9.472;2023-05-07T12:37:14;1.37;;;1.00;;
6412;SDS011;3239;48.714;9.472;2023-05-07T12:39:44;1.10;;;0.70;;
6412;SDS011;3239;48.714;9.472;2023-05-07T12:42:16;3.87;;;1.30;;
6412;SDS011;3239;48.714;9.472;2023-05-07T12:44:50;1.93;;;1.27;;
6412;SDS011;3239;48.714;9.472;2023-05-07T12:47:17;1.77;;;1.27;;
6412;SDS011;3239;48.714;9.472;2023-05-07T12:49:43;3.73;;;1.30;;
6412;SDS011;3239;48.714;9.472;2023-05-07T12:52:10;3.07;;;1.10;;
6412;SDS011;3239;48.714;9.472;2023-05-07T12:54:37;2.00;;;1.10;;
6412;SDS011;3239;48.714;9.472;2023-05-07T12:57:09;1.90;;;1.10;;
6412;SDS011;3239;48.714;9.472;2023-05-07T12:59:41;1.70;;;1.00;;
6412;SDS011;3239;48.714;9.472;2023-05-07T13:02:08;1.57;;;0.80;;
6412;SDS011;3239;48.714;9.472;2023-05-07T13:04:34;1.50;;;0.93;;
6412;SDS011;3239;48.714;9.472;2023-05-07T13:07:01;1.60;;;0.87;;
6412;SDS011;3239;48.714;9.472;2023-05-07T13:09:27;1.53;;;1.00;;
6412;SDS011;3239;48.714;9.472;2023-05-07T13:11:56;1.67;;;0.97;;
6412;SDS011;3239;48.714;9.472;2023-05-07T13:14:24;1.47;;;0.97;;
6412;SDS011;3239;48.714;9.472;2023-05-07T13:16:50;1.70;;;1.00;;
6412;SDS011;3239;48.714;9.472;2023-05-07T13:19:16;1.60;;;0.90;;
6412;SDS011;3239;48.714;9.472;2023-05-07T13:21:42;2.00;;;0.90;;
6412;SDS011;3239;48.714;9.472;2023-05-07T13:24:08;1.70;;;1.00;;
6412;SDS011;3239;48.714;9.472;2023-05-07T13:26:34;1.47;;;0.90;;
6412;SDS011;3239;48.714;9.472;2023-05-07T13:29:00;1.60;;;0.77;;
6412;SDS011;3239;48.714;9.472;2023-05-07T13:31:25;0.90;;;0.60;;
6412;SDS011;3239;48.714;9.472;2023-05-07T13:33:51;1.30;;;0.70;;
6412;SDS011;3239;48.714;9.472;2023-05-07T13:36:17;3.53;;;1.00;;
6412;SDS011;3239;48.714;9.472;2023-05-07T13:38:43;2.00;;;1.20;;
6412;SDS011;3239;48.714;9.472;2023-05-07T13:41:09;1.50;;;0.90;;
6412;SDS011;3239;48.714;9.472;2023-05-07T13:43:34;3.50;;;1.37;;
6412;SDS011;3239;48.714;9.472;2023-05-07T13:46:00;2.23;;;0.97;;
6412;SDS011;3239;48.714;9.472;2023-05-07T13:48:26;1.17;;;0.80;;
6412;SDS011;3239;48.714;9.472;2023-05-07T13:50:53;5.20;;;1.43;;
6412;SDS011;3239;48.714;9.472;2023-05-07T13:53:19;5.17;;;1.30;;
6412;SDS011;3239;48.714;9.472;2023-05-07T13:55:44;2.33;;;1.37;;
6412;SDS011;3239;48.714;9.472;2023-05-07T13:58:10;2.97;;;1.20;;
6412;SDS011;3239;48.714;9.472;2023-05-07T14:00:36;2.03;;;1.33;;
6412;SDS011;3239;48.714;9.472;2023-05-07T14:03:03;1.83;;;0.93;;
6412;SDS011;3239;48.714;9.472;2023-05-07T14:05:30;1.60;;;1.30;;
6412;SDS011;3239;48.714;9.472;2023-05-07T14:07:59;4.80;;;1.67;;
6412;SDS011;3239;48.714;9.472;2023-05-07T14:10:25;5.00;;;2.27;;
6412;SDS011;3239;48.714;9.472;2023-05-07T14:12:51;5.17;;;1.70;;
6412;SDS011;3239;48.714;9.472;2023-05-07T14:15:17;5.60;;;1.50;;
6412;SDS011;3239;48.714;9.472;2023-05-07T14:17:43;5.57;;;2.07;;
6412;SDS011;3239;48.714;9.472;2023-05-07T14:20:09;4.03;;;1.63;;
6412;SDS011;3239;48.714;9.472;2023-05-07T14:22:36;2.80;;;1.37;;
6412;SDS011;3239;48.714;9.472;2023-05-07T14:25:02;2.80;;;1.50;;
6412;SDS011;3239;48.714;9.472;2023-05-07T14:27:29;3.23;;;1.27;;
6412;SDS011;3239;48.714;9.472;2023-05-07T14:29:55;4.03;;;1.30;;
6412;SDS011;3239;48.714;9.472;2023-05-07T14:32:21;5.10;;;1.27;;
6412;SDS011;3239;48.714;9.472;2023-05-07T14:34:46;9.23;;;1.60;;
6412;SDS011;3239;48.714;9.472;2023-05-07T14:37:12;6.27;;;1.50;;
6412;SDS011;3239;48.714;9.472;2023-05-07T14:39:38;7.63;;;0.90;;
6412;SDS011;3239;48.714;9.472;2023-05-07T14:42:04;3.40;;;1.20;;
6412;SDS011;3239;48.714;9.472;2023-05-07T14:44:32;3.07;;;1.10;;
6412;SDS011;3239;48.714;9.472;2023-05-07T14:47:00;5.10;;;1.27;;
6412;SDS011;3239;48.714;9.472;2023-05-07T14:49:25;2.10;;;1.10;;
6412;SDS011;3239;48.714;9.472;2023-05-07T14:51:51;3.10;;;1.20;;
6412;SDS011;3239;48.714;9.472;2023-05-07T14:54:17;3.90;;;1.10;;
6412;SDS011;3239;48.714;9.472;2023-05-07T14:56:42;2.67;;;1.13;;
6412;SDS011;3239;48.714;9.472;2023-05-07T14:59:08;3.87;;;1.47;;
6412;SDS011;3239;48.714;9.472;2023-05-07T15:01:35;2.20;;;1.03;;
6412;SDS011;3239;48.714;9.472;2023-05-07T15:04:02;4.30;;;1.60;;
6412;SDS011;3239;48.714;9.472;2023-05-07T15:06:29;6.80;;;1.60;;
6412;SDS011;3239;48.714;9.472;2023-05-07T15:08:55;5.07;;;1.60;;
6412;SDS011;3239;48.714;9.472;2023-05-07T15:11:21;4.33;;;1.50;;
6412;SDS011;3239;48.714;9.472;2023-05-07T15:13:47;4.30;;;1.57;;
6412;SDS011;3239;48.714;9.472;2023-05-07T15:16:14;4.23;;;1.53;;
6412;SDS011;3239;48.714;9.472;2023-05-07T15:18:40;10.03;;;1.80;;
6412;SDS011;3239;48.714;9.472;2023-05-07T15:21:05;6.57;;;1.60;;
6412;SDS011;3239;48.714;9.472;2023-05-07T15:23:31;3.53;;;1.80;;
6412;SDS011;3239;48.714;9.472;2023-05-07T15:25:57;2.60;;;1.73;;
6412;SDS011;3239;48.714;9.472;2023-05-07T15:28:23;3.97;;;1.70;;